sensor_id;sensor_type;location;lat;lon;timestamp;P1;durP1;ratioP1;P2;durP2;ratioP2
32663;SDS011;19847;48.670;9.242;2022-07-21T00:02:07;39.15;;;30.00;;
32663;SDS011;19847;48.670;9.242;2022-07-21T00:05:29;38.80;;;31.13;;
32663;SDS011;19847;48.670;9.242;2022-07-21T00:08:51;37.92;;;31.25;;
32663;SDS011;19847;48.670;9.242;2022-07-21T00:12:14;40.92;;;30.30;;
32663;SDS011;19847;48.670;9.242;2022-07-21T00:15:38;39.85;;;29.80;;
32663;SDS011;19847;48.670;9.242;2022-07-21T00:19:00;41.88;;;29.17;;
32663;SDS011;19847;48.670;9.242;2022-07-21T00:22:22;42.78;;;30.45;;
32663;SDS011;19847;48.670;9.242;2022-07-21T00:25:44;35.10;;;29.05;;
32663;SDS011;19847;48.670;9.242;2022-07-21T00:29:06;31.27;;;26.42;;
32663;SDS011;19847;48.670;9.242;2022-07-21T00:32:30;27.15;;;24.35;;
32663;SDS011;19847;48.670;9.242;2022-07-21T00:35:56;27.75;;;23.98;;
32663;SDS011;19847;48.670;9.242;2022-07-21T00:39:18;31.35;;;25.27;;
32663;SDS011;19847;48.670;9.242;2022-07-21T00:42:41;29.95;;;24.42;;
32663;SDS011;19847;48.670;9.242;2022-07-21T00:46:04;30.05;;;22.80;;
32663;SDS011;19847;48.670;9.242;2022-07-21T00:49:27;26.15;;;22.58;;
32663;SDS011;19847;48.670;9.242;2022-07-21T00:52:50;27.92;;;22.40;;
32663;SDS011;19847;48.670;9.242;2022-07-21T00:56:12;29.33;;;22.20;;
32663;SDS011;19847;48.670;9.242;2022-07-21T00:59:35;25.70;;;21.70;;
32663;SDS011;19847;48.670;9.242;2022-07-21T01:02:57;26.02;;;20.50;;
32663;SDS011;19847;48.670;9.242;2022-07-21T01:06:21;27.10;;;20.02;;
32663;SDS011;19847;48.670;9.242;2022-07-21T01:13:07;31.15;;;21.30;;
32663;SDS011;19847;48.670;9.242;2022-07-21T01:16:29;22.95;;;20.48;;
32663;SDS011;19847;48.670;9.242;2022-07-21T01:19:52;21.67;;;17.80;;
32663;SDS011;19847;48.670;9.242;2022-07-21T01:23:15;22.77;;;17.80;;
32663;SDS011;19847;48.670;9.242;2022-07-21T01:26:41;19.80;;;17.73;;
32663;SDS011;19847;48.670;9.242;2022-07-21T01:30:05;24.20;;;17.00;;
32663;SDS011;19847;48.670;9.242;2022-07-21T01:33:30;19.58;;;16.20;;
32663;SDS011;19847;48.670;9.242;2022-07-21T01:36:52;27.33;;;16.83;;
32663;SDS011;19847;48.670;9.242;2022-07-21T01:40:16;21.23;;;16.92;;
32663;SDS011;19847;48.670;9.242;2022-07-21T01:43:40;18.58;;;16.00;;
32663;SDS011;19847;48.670;9.242;2022-07-21T01:47:02;18.83;;;14.52;;
32663;SDS011;19847;48.670;9.242;2022-07-21T01:50:24;15.35;;;12.90;;
32663;SDS011;19847;48.670;9.242;2022-07-21T01:53:47;14.82;;;12.20;;
32663;SDS011;19847;48.670;9.242;2022-07-21T01:57:11;12.90;;;10.68;;
32663;SDS011;19847;48.670;9.242;2022-07-21T02:00:33;17.40;;;11.88;;
32663;SDS011;19847;48.670;9.242;2022-07-21T02:03:56;15.13;;;10.88;;
32663;SDS011;19847;48.670;9.242;2022-07-21T02:07:20;15.18;;;13.48;;
32663;SDS011;19847;48.670;9.242;2022-07-21T02:10:42;20.23;;;11.23;;
32663;SDS011;19847;48.670;9.242;2022-07-21T02:14:06;12.95;;;11.35;;
32663;SDS011;19847;48.670;9.242;2022-07-21T02:17:28;15.27;;;11.63;;
32663;SDS011;19847;48.670;9.242;2022-07-21T02:20:50;13.90;;;11.35;;
32663;SDS011;19847;48.670;9.242;2022-07-21T02:24:12;12.85;;;10.63;;
32663;SDS011;19847;48.670;9.242;2022-07-21T02:27:34;14.30;;;11.82;;
32663;SDS011;19847;48.670;9.242;2022-07-21T02:30:58;14.80;;;11.32;;
32663;SDS011;19847;48.670;9.242;2022-07-21T02:34:20;13.90;;;11.45;;
32663;SDS011;19847;48.670;9.242;2022-07-21T02:37:42;16.02;;;12.02;;
32663;SDS011;19847;48.670;9.242;2022-07-21T02:41:04;18.40;;;11.55;;
32663;SDS011;19847;48.670;9.242;2022-07-21T02:44:26;18.23;;;11.45;;
32663;SDS011;19847;48.670;9.242;2022-07-21T02:47:54;12.93;;;11.43;;
32663;SDS011;19847;48.670;9.242;2022-07-21T02:51:18;14.27;;;11.45;;
32663;SDS011;19847;48.670;9.242;2022-07-21T02:54:40;13.02;;;11.27;;
32663;SDS011;19847;48.670;9.242;2022-07-21T02:58:03;16.25;;;12.90;;
32663;SDS011;19847;48.670;9.242;2022-07-21T03:01:30;12.93;;;11.55;;
32663;SDS011;19847;48.670;9.242;2022-07-21T03:04:54;21.83;;;12.00;;
32663;SDS011;19847;48.670;9.242;2022-07-21T03:08:16;13.48;;;11.32;;
32663;SDS011;19847;48.670;9.242;2022-07-21T03:11:39;13.30;;;11.95;;
32663;SDS011;19847;48.670;9.242;2022-07-21T03:15:01;14.40;;;11.90;;
32663;SDS011;19847;48.670;9.242;2022-07-21T03:18:23;22.75;;;11.55;;
32663;SDS011;19847;48.670;9.242;2022-07-21T03:21:46;14.10;;;12.25;;
32663;SDS011;19847;48.670;9.242;2022-07-21T03:25:08;13.32;;;11.70;;
32663;SDS011;19847;48.670;9.242;2022-07-21T03:28:31;14.25;;;11.73;;
32663;SDS011;19847;48.670;9.242;2022-07-21T03:31:53;19.15;;;12.10;;
32663;SDS011;19847;48.670;9.242;2022-07-21T03:35:15;16.92;;;11.90;;
32663;SDS011;19847;48.670;9.242;2022-07-21T03:38:38;15.57;;;12.55;;
32663;SDS011;19847;48.670;9.242;2022-07-21T03:42:00;12.95;;;11.52;;
32663;SDS011;19847;48.670;9.242;2022-07-21T03:45:23;14.75;;;12.43;;
32663;SDS011;19847;48.670;9.242;2022-07-21T03:48:46;18.58;;;11.93;;
32663;SDS011;19847;48.670;9.242;2022-07-21T03:52:13;17.67;;;12.10;;
32663;SDS011;19847;48.670;9.242;2022-07-21T03:55:37;18.00;;;13.13;;
32663;SDS011;19847;48.670;9.242;2022-07-21T03:58:59;19.92;;;13.75;;
32663;SDS011;19847;48.670;9.242;2022-07-21T04:02:21;15.90;;;12.25;;
32663;SDS011;19847;48.670;9.242;2022-07-21T04:05:43;18.38;;;13.38;;
32663;SDS011;19847;48.670;9.242;2022-07-21T04:09:05;13.10;;;11.65;;
32663;SDS011;19847;48.670;9.242;2022-07-21T04:12:28;17.60;;;11.75;;
32663;SDS011;19847;48.670;9.242;2022-07-21T04:15:50;17.88;;;12.15;;
32663;SDS011;19847;48.670;9.242;2022-07-21T04:19:13;13.52;;;12.13;;
32663;SDS011;19847;48.670;9.242;2022-07-21T04:22:35;15.27;;;11.48;;
32663;SDS011;19847;48.670;9.242;2022-07-21T04:25:58;12.80;;;11.45;;
32663;SDS011;19847;48.670;9.242;2022-07-21T04:29:21;12.30;;;11.02;;
32663;SDS011;19847;48.670;9.242;2022-07-21T04:32:43;13.63;;;11.30;;
32663;SDS011;19847;48.670;9.242;2022-07-21T04:36:06;12.60;;;11.02;;
32663;SDS011;19847;48.670;9.242;2022-07-21T04:39:28;17.58;;;11.77;;
32663;SDS011;19847;48.670;9.242;2022-07-21T04:42:50;12.73;;;10.90;;
32663;SDS011;19847;48.670;9.242;2022-07-21T04:46:14;15.73;;;11.13;;
32663;SDS011;19847;48.670;9.242;2022-07-21T04:49:36;11.15;;;10.05;;
32663;SDS011;19847;48.670;9.242;2022-07-21T04:52:59;17.00;;;11.50;;
32663;SDS011;19847;48.670;9.242;2022-07-21T04:56:21;14.90;;;9.90;;
32663;SDS011;19847;48.670;9.242;2022-07-21T04:59:43;11.45;;;10.05;;
32663;SDS011;19847;48.670;9.242;2022-07-21T05:03:06;13.18;;;9.18;;
32663;SDS011;19847;48.670;9.242;2022-07-21T05:06:28;13.50;;;10.32;;
32663;SDS011;19847;48.670;9.242;2022-07-21T05:09:50;20.08;;;9.98;;
32663;SDS011;19847;48.670;9.242;2022-07-21T05:13:12;8.90;;;8.07;;
32663;SDS011;19847;48.670;9.242;2022-07-21T05:16:34;10.63;;;8.77;;
32663;SDS011;19847;48.670;9.242;2022-07-21T05:19:58;12.68;;;9.07;;
32663;SDS011;19847;48.670;9.242;2022-07-21T05:23:20;9.18;;;8.00;;
32663;SDS011;19847;48.670;9.242;2022-07-21T05:26:42;11.30;;;8.38;;
32663;SDS011;19847;48.670;9.242;2022-07-21T05:30:05;13.98;;;7.57;;
32663;SDS011;19847;48.670;9.242;2022-07-21T05:33:28;10.90;;;7.15;;
32663;SDS011;19847;48.670;9.242;2022-07-21T05:36:51;9.50;;;6.63;;
32663;SDS011;19847;48.670;9.242;2022-07-21T05:40:14;8.68;;;7.05;;
32663;SDS011;19847;48.670;9.242;2022-07-21T05:43:36;9.85;;;6.30;;
32663;SDS011;19847;48.670;9.242;2022-07-21T05:46:58;8.30;;;6.43;;
32663;SDS011;19847;48.670;9.242;2022-07-21T05:50:20;11.65;;;6.78;;
32663;SDS011;19847;48.670;9.242;2022-07-21T05:53:44;18.15;;;6.95;;
32663;SDS011;19847;48.670;9.242;2022-07-21T05:57:06;12.13;;;5.90;;
32663;SDS011;19847;48.670;9.242;2022-07-21T06:00:28;6.10;;;5.50;;
32663;SDS011;19847;48.670;9.242;2022-07-21T06:03:50;8.65;;;5.78;;
32663;SDS011;19847;48.670;9.242;2022-07-21T06:07:12;14.20;;;6.28;;
32663;SDS011;19847;48.670;9.242;2022-07-21T06:10:36;9.80;;;6.35;;
32663;SDS011;19847;48.670;9.242;2022-07-21T06:13:59;8.88;;;6.47;;
32663;SDS011;19847;48.670;9.242;2022-07-21T06:17:21;9.15;;;5.95;;
32663;SDS011;19847;48.670;9.242;2022-07-21T06:20:43;18.05;;;6.00;;
32663;SDS011;19847;48.670;9.242;2022-07-21T06:24:06;7.65;;;5.25;;
32663;SDS011;19847;48.670;9.242;2022-07-21T06:27:29;8.15;;;6.03;;
32663;SDS011;19847;48.670;9.242;2022-07-21T06:30:52;11.05;;;5.65;;
32663;SDS011;19847;48.670;9.242;2022-07-21T06:34:14;8.32;;;5.25;;
32663;SDS011;19847;48.670;9.242;2022-07-21T06:37:36;12.48;;;5.50;;
32663;SDS011;19847;48.670;9.242;2022-07-21T06:40:58;13.45;;;6.13;;
32663;SDS011;19847;48.670;9.242;2022-07-21T06:44:22;5.85;;;5.05;;
32663;SDS011;19847;48.670;9.242;2022-07-21T06:47:44;8.32;;;5.85;;
32663;SDS011;19847;48.670;9.242;2022-07-21T06:51:06;11.48;;;5.97;;
32663;SDS011;19847;48.670;9.242;2022-07-21T06:54:28;7.57;;;6.25;;
32663;SDS011;19847;48.670;9.242;2022-07-21T06:57:50;5.18;;;4.57;;
32663;SDS011;19847;48.670;9.242;2022-07-21T07:01:14;11.02;;;6.43;;
32663;SDS011;19847;48.670;9.242;2022-07-21T07:04:36;8.23;;;5.40;;
32663;SDS011;19847;48.670;9.242;2022-07-21T07:07:58;7.55;;;4.55;;
32663;SDS011;19847;48.670;9.242;2022-07-21T07:11:21;6.13;;;5.18;;
32663;SDS011;19847;48.670;9.242;2022-07-21T07:14:43;9.77;;;6.18;;
32663;SDS011;19847;48.670;9.242;2022-07-21T07:18:07;11.80;;;5.15;;
32663;SDS011;19847;48.670;9.242;2022-07-21T07:21:29;6.93;;;4.97;;
32663;SDS011;19847;48.670;9.242;2022-07-21T07:24:51;12.88;;;4.88;;
32663;SDS011;19847;48.670;9.242;2022-07-21T07:28:13;7.15;;;5.13;;
32663;SDS011;19847;48.670;9.242;2022-07-21T07:31:35;7.45;;;5.22;;
32663;SDS011;19847;48.670;9.242;2022-07-21T07:34:59;8.43;;;4.90;;
32663;SDS011;19847;48.670;9.242;2022-07-21T07:38:21;9.60;;;4.88;;
32663;SDS011;19847;48.670;9.242;2022-07-21T07:41:43;5.15;;;4.63;;
32663;SDS011;19847;48.670;9.242;2022-07-21T07:45:06;7.85;;;4.60;;
32663;SDS011;19847;48.670;9.242;2022-07-21T07:48:29;7.00;;;4.90;;
32663;SDS011;19847;48.670;9.242;2022-07-21T07:51:52;9.32;;;4.93;;
32663;SDS011;19847;48.670;9.242;2022-07-21T07:55:14;5.72;;;5.13;;
32663;SDS011;19847;48.670;9.242;2022-07-21T07:58:36;5.82;;;4.50;;
32663;SDS011;19847;48.670;9.242;2022-07-21T08:01:59;5.00;;;4.47;;
32663;SDS011;19847;48.670;9.242;2022-07-21T08:05:21;7.63;;;5.03;;
32663;SDS011;19847;48.670;9.242;2022-07-21T08:08:44;5.80;;;4.65;;
32663;SDS011;19847;48.670;9.242;2022-07-21T08:12:07;10.40;;;4.80;;
32663;SDS011;19847;48.670;9.242;2022-07-21T08:15:29;5.72;;;5.03;;
32663;SDS011;19847;48.670;9.242;2022-07-21T08:18:51;12.60;;;5.07;;
32663;SDS011;19847;48.670;9.242;2022-07-21T08:22:13;9.20;;;4.82;;
32663;SDS011;19847;48.670;9.242;2022-07-21T08:25:37;8.95;;;5.13;;
32663;SDS011;19847;48.670;9.242;2022-07-21T08:28:59;6.72;;;5.40;;
32663;SDS011;19847;48.670;9.242;2022-07-21T08:32:21;5.82;;;4.53;;
32663;SDS011;19847;48.670;9.242;2022-07-21T08:35:44;10.50;;;5.05;;
32663;SDS011;19847;48.670;9.242;2022-07-21T08:39:06;5.75;;;4.18;;
32663;SDS011;19847;48.670;9.242;2022-07-21T08:42:29;12.10;;;4.93;;
32663;SDS011;19847;48.670;9.242;2022-07-21T08:45:51;10.18;;;5.15;;
32663;SDS011;19847;48.670;9.242;2022-07-21T08:49:15;9.07;;;4.35;;
32663;SDS011;19847;48.670;9.242;2022-07-21T08:52:40;5.40;;;3.70;;
32663;SDS011;19847;48.670;9.242;2022-07-21T08:56:02;5.90;;;3.60;;
32663;SDS011;19847;48.670;9.242;2022-07-21T08:59:26;3.72;;;3.30;;
32663;SDS011;19847;48.670;9.242;2022-07-21T09:06:29;6.70;;;3.65;;
32663;SDS011;19847;48.670;9.242;2022-07-21T09:09:55;7.88;;;3.65;;
32663;SDS011;19847;48.670;9.242;2022-07-21T09:13:19;6.72;;;3.13;;
32663;SDS011;19847;48.670;9.242;2022-07-21T09:16:43;3.53;;;3.10;;
32663;SDS011;19847;48.670;9.242;2022-07-21T09:20:20;5.82;;;3.58;;
32663;SDS011;19847;48.670;9.242;2022-07-21T09:23:43;7.93;;;4.15;;
32663;SDS011;19847;48.670;9.242;2022-07-21T09:27:09;9.40;;;4.60;;
32663;SDS011;19847;48.670;9.242;2022-07-21T09:30:46;4.55;;;3.63;;
32663;SDS011;19847;48.670;9.242;2022-07-21T09:34:13;5.28;;;4.13;;
32663;SDS011;19847;48.670;9.242;2022-07-21T09:37:36;6.05;;;3.63;;
32663;SDS011;19847;48.670;9.242;2022-07-21T09:41:06;11.53;;;3.73;;
32663;SDS011;19847;48.670;9.242;2022-07-21T09:44:30;7.78;;;4.18;;
32663;SDS011;19847;48.670;9.242;2022-07-21T09:47:52;8.88;;;4.25;;
32663;SDS011;19847;48.670;9.242;2022-07-21T09:51:23;6.88;;;3.78;;
32663;SDS011;19847;48.670;9.242;2022-07-21T09:54:47;4.28;;;3.60;;
32663;SDS011;19847;48.670;9.242;2022-07-21T09:58:10;4.85;;;3.45;;
32663;SDS011;19847;48.670;9.242;2022-07-21T10:01:32;7.35;;;4.18;;
32663;SDS011;19847;48.670;9.242;2022-07-21T10:04:56;5.03;;;2.85;;
32663;SDS011;19847;48.670;9.242;2022-07-21T10:08:29;8.20;;;3.72;;
32663;SDS011;19847;48.670;9.242;2022-07-21T10:11:54;3.97;;;3.20;;
32663;SDS011;19847;48.670;9.242;2022-07-21T10:15:16;4.32;;;3.20;;
32663;SDS011;19847;48.670;9.242;2022-07-21T10:18:47;7.78;;;4.15;;
32663;SDS011;19847;48.670;9.242;2022-07-21T10:22:19;5.85;;;3.33;;
32663;SDS011;19847;48.670;9.242;2022-07-21T10:25:48;4.20;;;3.47;;
32663;SDS011;19847;48.670;9.242;2022-07-21T10:29:11;10.07;;;3.33;;
32663;SDS011;19847;48.670;9.242;2022-07-21T10:32:33;8.98;;;4.45;;
32663;SDS011;19847;48.670;9.242;2022-07-21T10:35:56;7.07;;;3.53;;
32663;SDS011;19847;48.670;9.242;2022-07-21T10:46:58;4.15;;;3.70;;
32663;SDS011;19847;48.670;9.242;2022-07-21T10:50:29;4.88;;;3.03;;
32663;SDS011;19847;48.670;9.242;2022-07-21T10:57:38;5.18;;;3.83;;
32663;SDS011;19847;48.670;9.242;2022-07-21T11:01:01;6.63;;;3.60;;
32663;SDS011;19847;48.670;9.242;2022-07-21T11:04:32;6.43;;;4.22;;
32663;SDS011;19847;48.670;9.242;2022-07-21T11:08:29;16.88;;;4.47;;
32663;SDS011;19847;48.670;9.242;2022-07-21T11:11:56;5.13;;;3.92;;
32663;SDS011;19847;48.670;9.242;2022-07-21T11:19:10;6.22;;;3.03;;
32663;SDS011;19847;48.670;9.242;2022-07-21T11:22:53;14.10;;;4.53;;
32663;SDS011;19847;48.670;9.242;2022-07-21T11:26:16;13.98;;;4.90;;
32663;SDS011;19847;48.670;9.242;2022-07-21T11:29:40;8.35;;;3.67;;
32663;SDS011;19847;48.670;9.242;2022-07-21T11:33:03;9.20;;;4.20;;
32663;SDS011;19847;48.670;9.242;2022-07-21T11:36:27;19.27;;;4.40;;
32663;SDS011;19847;48.670;9.242;2022-07-21T11:39:51;5.47;;;3.70;;
32663;SDS011;19847;48.670;9.242;2022-07-21T11:43:14;4.55;;;3.47;;
32663;SDS011;19847;48.670;9.242;2022-07-21T11:46:46;11.18;;;4.63;;
32663;SDS011;19847;48.670;9.242;2022-07-21T11:50:10;4.25;;;3.50;;
32663;SDS011;19847;48.670;9.242;2022-07-21T11:53:33;4.45;;;4.00;;
32663;SDS011;19847;48.670;9.242;2022-07-21T11:56:58;7.05;;;3.55;;
32663;SDS011;19847;48.670;9.242;2022-07-21T12:00:24;4.38;;;3.13;;
32663;SDS011;19847;48.670;9.242;2022-07-21T12:07:19;5.75;;;3.33;;
32663;SDS011;19847;48.670;9.242;2022-07-21T12:10:44;6.40;;;3.83;;
32663;SDS011;19847;48.670;9.242;2022-07-21T12:14:07;6.28;;;3.00;;
32663;SDS011;19847;48.670;9.242;2022-07-21T12:17:33;6.07;;;3.50;;
32663;SDS011;19847;48.670;9.242;2022-07-21T12:21:00;10.95;;;3.80;;
32663;SDS011;19847;48.670;9.242;2022-07-21T12:24:23;5.07;;;3.47;;
32663;SDS011;19847;48.670;9.242;2022-07-21T12:28:09;5.47;;;3.47;;
32663;SDS011;19847;48.670;9.242;2022-07-21T12:31:33;4.93;;;3.15;;
32663;SDS011;19847;48.670;9.242;2022-07-21T12:34:56;6.70;;;3.25;;
32663;SDS011;19847;48.670;9.242;2022-07-21T12:38:39;4.18;;;3.35;;
32663;SDS011;19847;48.670;9.242;2022-07-21T12:42:02;4.03;;;3.20;;
32663;SDS011;19847;48.670;9.242;2022-07-21T12:45:25;3.95;;;2.70;;
32663;SDS011;19847;48.670;9.242;2022-07-21T12:48:49;3.80;;;2.85;;
32663;SDS011;19847;48.670;9.242;2022-07-21T12:52:11;5.67;;;3.23;;
32663;SDS011;19847;48.670;9.242;2022-07-21T12:55:35;4.25;;;2.50;;
32663;SDS011;19847;48.670;9.242;2022-07-21T12:58:57;4.70;;;2.75;;
32663;SDS011;19847;48.670;9.242;2022-07-21T13:02:20;6.55;;;3.03;;
32663;SDS011;19847;48.670;9.242;2022-07-21T13:05:44;8.90;;;2.95;;
32663;SDS011;19847;48.670;9.242;2022-07-21T13:09:06;3.88;;;2.80;;
32663;SDS011;19847;48.670;9.242;2022-07-21T13:12:28;5.50;;;2.75;;
32663;SDS011;19847;48.670;9.242;2022-07-21T13:15:50;9.60;;;2.33;;
32663;SDS011;19847;48.670;9.242;2022-07-21T13:19:12;4.95;;;3.10;;
32663;SDS011;19847;48.670;9.242;2022-07-21T13:22:36;4.53;;;3.03;;
32663;SDS011;19847;48.670;9.242;2022-07-21T13:25:58;4.53;;;3.08;;
32663;SDS011;19847;48.670;9.242;2022-07-21T13:29:26;7.30;;;3.47;;
32663;SDS011;19847;48.670;9.242;2022-07-21T13:32:48;4.90;;;3.20;;
32663;SDS011;19847;48.670;9.242;2022-07-21T13:36:10;4.60;;;3.00;;
32663;SDS011;19847;48.670;9.242;2022-07-21T13:43:19;7.72;;;4.82;;
32663;SDS011;19847;48.670;9.242;2022-07-21T13:46:57;5.50;;;3.70;;
32663;SDS011;19847;48.670;9.242;2022-07-21T13:50:19;8.05;;;4.95;;
32663;SDS011;19847;48.670;9.242;2022-07-21T13:53:41;10.38;;;4.38;;
32663;SDS011;19847;48.670;9.242;2022-07-21T13:57:06;7.38;;;4.43;;
32663;SDS011;19847;48.670;9.242;2022-07-21T14:00:28;13.40;;;4.05;;
32663;SDS011;19847;48.670;9.242;2022-07-21T14:03:50;5.05;;;4.00;;
32663;SDS011;19847;48.670;9.242;2022-07-21T14:07:14;7.72;;;4.30;;
32663;SDS011;19847;48.670;9.242;2022-07-21T14:10:36;7.88;;;4.43;;
32663;SDS011;19847;48.670;9.242;2022-07-21T14:13:59;9.43;;;4.85;;
32663;SDS011;19847;48.670;9.242;2022-07-21T14:17:21;6.15;;;3.75;;
32663;SDS011;19847;48.670;9.242;2022-07-21T14:20:43;5.65;;;4.15;;
32663;SDS011;19847;48.670;9.242;2022-07-21T14:24:06;5.20;;;4.70;;
32663;SDS011;19847;48.670;9.242;2022-07-21T14:27:28;9.70;;;4.30;;
32663;SDS011;19847;48.670;9.242;2022-07-21T14:30:52;9.88;;;4.72;;
32663;SDS011;19847;48.670;9.242;2022-07-21T14:34:20;6.53;;;5.03;;
32663;SDS011;19847;48.670;9.242;2022-07-21T14:37:42;7.60;;;4.43;;
32663;SDS011;19847;48.670;9.242;2022-07-21T14:41:05;4.93;;;4.07;;
32663;SDS011;19847;48.670;9.242;2022-07-21T14:44:28;9.45;;;4.43;;
32663;SDS011;19847;48.670;9.242;2022-07-21T14:47:52;7.00;;;4.60;;
32663;SDS011;19847;48.670;9.242;2022-07-21T14:51:15;5.95;;;4.63;;
32663;SDS011;19847;48.670;9.242;2022-07-21T14:54:37;17.27;;;4.45;;
32663;SDS011;19847;48.670;9.242;2022-07-21T14:57:59;9.27;;;4.90;;
32663;SDS011;19847;48.670;9.242;2022-07-21T15:01:23;6.30;;;4.03;;
32663;SDS011;19847;48.670;9.242;2022-07-21T15:04:46;8.48;;;4.03;;
32663;SDS011;19847;48.670;9.242;2022-07-21T15:08:10;6.32;;;4.13;;
32663;SDS011;19847;48.670;9.242;2022-07-21T15:11:34;12.77;;;6.07;;
32663;SDS011;19847;48.670;9.242;2022-07-21T15:14:56;9.55;;;4.43;;
32663;SDS011;19847;48.670;9.242;2022-07-21T15:18:19;4.25;;;3.63;;
32663;SDS011;19847;48.670;9.242;2022-07-21T15:21:42;5.13;;;4.05;;
32663;SDS011;19847;48.670;9.242;2022-07-21T15:25:05;25.02;;;9.63;;
32663;SDS011;19847;48.670;9.242;2022-07-21T15:28:28;7.82;;;4.20;;
32663;SDS011;19847;48.670;9.242;2022-07-21T15:31:50;6.00;;;3.42;;
32663;SDS011;19847;48.670;9.242;2022-07-21T15:35:13;12.85;;;3.80;;
32663;SDS011;19847;48.670;9.242;2022-07-21T15:38:36;16.95;;;6.82;;
32663;SDS011;19847;48.670;9.242;2022-07-21T15:41:58;4.75;;;3.92;;
32663;SDS011;19847;48.670;9.242;2022-07-21T15:45:20;8.52;;;4.70;;
32663;SDS011;19847;48.670;9.242;2022-07-21T15:48:42;11.45;;;4.47;;
32663;SDS011;19847;48.670;9.242;2022-07-21T15:52:04;8.00;;;5.10;;
32663;SDS011;19847;48.670;9.242;2022-07-21T15:55:28;5.13;;;3.95;;
32663;SDS011;19847;48.670;9.242;2022-07-21T15:58:50;4.50;;;3.72;;
32663;SDS011;19847;48.670;9.242;2022-07-21T16:02:13;6.22;;;3.97;;
32663;SDS011;19847;48.670;9.242;2022-07-21T16:05:36;9.70;;;3.58;;
32663;SDS011;19847;48.670;9.242;2022-07-21T16:08:58;3.92;;;3.50;;
32663;SDS011;19847;48.670;9.242;2022-07-21T16:12:21;5.97;;;3.80;;
32663;SDS011;19847;48.670;9.242;2022-07-21T16:15:43;5.72;;;4.13;;
32663;SDS011;19847;48.670;9.242;2022-07-21T16:19:06;5.45;;;4.15;;
32663;SDS011;19847;48.670;9.242;2022-07-21T16:22:32;4.43;;;4.03;;
32663;SDS011;19847;48.670;9.242;2022-07-21T16:25:54;5.20;;;3.45;;
32663;SDS011;19847;48.670;9.242;2022-07-21T16:29:18;7.38;;;3.58;;
32663;SDS011;19847;48.670;9.242;2022-07-21T16:32:40;4.15;;;3.50;;
32663;SDS011;19847;48.670;9.242;2022-07-21T16:36:02;4.50;;;3.40;;
32663;SDS011;19847;48.670;9.242;2022-07-21T16:39:25;7.25;;;3.30;;
32663;SDS011;19847;48.670;9.242;2022-07-21T16:42:49;3.25;;;2.95;;
32663;SDS011;19847;48.670;9.242;2022-07-21T16:46:13;5.90;;;3.13;;
32663;SDS011;19847;48.670;9.242;2022-07-21T16:49:36;6.45;;;3.38;;
32663;SDS011;19847;48.670;9.242;2022-07-21T16:52:58;11.43;;;3.70;;
32663;SDS011;19847;48.670;9.242;2022-07-21T16:56:20;7.38;;;3.80;;
32663;SDS011;19847;48.670;9.242;2022-07-21T16:59:42;5.40;;;3.50;;
32663;SDS011;19847;48.670;9.242;2022-07-21T17:03:07;4.22;;;2.95;;
32663;SDS011;19847;48.670;9.242;2022-07-21T17:06:29;6.47;;;3.35;;
32663;SDS011;19847;48.670;9.242;2022-07-21T17:09:51;4.78;;;3.00;;
32663;SDS011;19847;48.670;9.242;2022-07-21T17:13:15;4.72;;;3.30;;
32663;SDS011;19847;48.670;9.242;2022-07-21T17:16:37;5.88;;;3.67;;
32663;SDS011;19847;48.670;9.242;2022-07-21T17:20:01;3.88;;;3.40;;
32663;SDS011;19847;48.670;9.242;2022-07-21T17:23:25;8.43;;;3.25;;
32663;SDS011;19847;48.670;9.242;2022-07-21T17:26:48;3.35;;;3.00;;
32663;SDS011;19847;48.670;9.242;2022-07-21T17:30:10;5.85;;;3.35;;
32663;SDS011;19847;48.670;9.242;2022-07-21T17:33:43;5.15;;;3.38;;
32663;SDS011;19847;48.670;9.242;2022-07-21T17:37:06;3.42;;;3.13;;
32663;SDS011;19847;48.670;9.242;2022-07-21T17:40:28;5.18;;;3.17;;
32663;SDS011;19847;48.670;9.242;2022-07-21T17:43:51;5.35;;;4.03;;
32663;SDS011;19847;48.670;9.242;2022-07-21T17:47:18;4.75;;;3.15;;
32663;SDS011;19847;48.670;9.242;2022-07-21T17:50:41;8.27;;;3.88;;
32663;SDS011;19847;48.670;9.242;2022-07-21T17:54:05;6.88;;;3.83;;
32663;SDS011;19847;48.670;9.242;2022-07-21T17:57:27;7.47;;;4.28;;
32663;SDS011;19847;48.670;9.242;2022-07-21T18:00:49;6.57;;;4.40;;
32663;SDS011;19847;48.670;9.242;2022-07-21T18:04:11;5.07;;;3.88;;
32663;SDS011;19847;48.670;9.242;2022-07-21T18:07:33;7.60;;;4.20;;
32663;SDS011;19847;48.670;9.242;2022-07-21T18:10:57;11.30;;;3.58;;
32663;SDS011;19847;48.670;9.242;2022-07-21T18:14:22;9.73;;;3.63;;
32663;SDS011;19847;48.670;9.242;2022-07-21T18:17:44;7.78;;;4.50;;
32663;SDS011;19847;48.670;9.242;2022-07-21T18:21:07;10.05;;;4.22;;
32663;SDS011;19847;48.670;9.242;2022-07-21T18:24:29;7.78;;;3.65;;
32663;SDS011;19847;48.670;9.242;2022-07-21T18:27:53;6.97;;;3.88;;
32663;SDS011;19847;48.670;9.242;2022-07-21T18:31:15;7.88;;;3.88;;
32663;SDS011;19847;48.670;9.242;2022-07-21T18:34:37;7.93;;;3.65;;
32663;SDS011;19847;48.670;9.242;2022-07-21T18:38:00;7.68;;;4.05;;
32663;SDS011;19847;48.670;9.242;2022-07-21T18:41:23;14.52;;;3.88;;
32663;SDS011;19847;48.670;9.242;2022-07-21T18:44:48;9.25;;;4.40;;
32663;SDS011;19847;48.670;9.242;2022-07-21T18:48:12;4.35;;;3.50;;
32663;SDS011;19847;48.670;9.242;2022-07-21T18:51:54;5.97;;;3.58;;
32663;SDS011;19847;48.670;9.242;2022-07-21T18:55:17;3.85;;;3.38;;
32663;SDS011;19847;48.670;9.242;2022-07-21T18:58:40;6.05;;;3.75;;
32663;SDS011;19847;48.670;9.242;2022-07-21T19:02:03;6.53;;;3.97;;
32663;SDS011;19847;48.670;9.242;2022-07-21T19:05:25;8.10;;;4.22;;
32663;SDS011;19847;48.670;9.242;2022-07-21T19:08:48;6.65;;;3.38;;
32663;SDS011;19847;48.670;9.242;2022-07-21T19:12:10;4.35;;;3.80;;
32663;SDS011;19847;48.670;9.242;2022-07-21T19:15:33;6.00;;;4.30;;
32663;SDS011;19847;48.670;9.242;2022-07-21T19:18:57;6.13;;;3.70;;
32663;SDS011;19847;48.670;9.242;2022-07-21T19:22:19;11.25;;;4.60;;
32663;SDS011;19847;48.670;9.242;2022-07-21T19:25:43;8.60;;;4.07;;
32663;SDS011;19847;48.670;9.242;2022-07-21T19:29:05;10.10;;;3.42;;
32663;SDS011;19847;48.670;9.242;2022-07-21T19:32:28;4.82;;;3.80;;
32663;SDS011;19847;48.670;9.242;2022-07-21T19:35:52;8.10;;;3.78;;
32663;SDS011;19847;48.670;9.242;2022-07-21T19:39:14;6.55;;;3.50;;
32663;SDS011;19847;48.670;9.242;2022-07-21T19:42:36;7.90;;;3.67;;
32663;SDS011;19847;48.670;9.242;2022-07-21T19:45:59;8.18;;;3.67;;
32663;SDS011;19847;48.670;9.242;2022-07-21T19:49:23;6.65;;;3.88;;
32663;SDS011;19847;48.670;9.242;2022-07-21T19:52:47;5.10;;;3.70;;
32663;SDS011;19847;48.670;9.242;2022-07-21T19:56:11;4.00;;;3.20;;
32663;SDS011;19847;48.670;9.242;2022-07-21T19:59:33;4.82;;;3.60;;
32663;SDS011;19847;48.670;9.242;2022-07-21T20:02:56;5.93;;;3.53;;
32663;SDS011;19847;48.670;9.242;2022-07-21T20:06:19;5.47;;;4.07;;
32663;SDS011;19847;48.670;9.242;2022-07-21T20:09:43;9.23;;;5.15;;
32663;SDS011;19847;48.670;9.242;2022-07-21T20:13:05;14.30;;;4.53;;
32663;SDS011;19847;48.670;9.242;2022-07-21T20:16:28;7.65;;;4.20;;
32663;SDS011;19847;48.670;9.242;2022-07-21T20:19:50;9.68;;;3.60;;
32663;SDS011;19847;48.670;9.242;2022-07-21T20:23:12;5.72;;;4.20;;
32663;SDS011;19847;48.670;9.242;2022-07-21T20:26:36;7.57;;;5.00;;
32663;SDS011;19847;48.670;9.242;2022-07-21T20:30:00;9.20;;;4.75;;
32663;SDS011;19847;48.670;9.242;2022-07-21T20:33:23;7.05;;;4.43;;
32663;SDS011;19847;48.670;9.242;2022-07-21T20:36:46;8.70;;;4.28;;
32663;SDS011;19847;48.670;9.242;2022-07-21T20:40:09;6.45;;;4.30;;
32663;SDS011;19847;48.670;9.242;2022-07-21T20:43:45;6.07;;;4.43;;